createdAt,value
2022-11-17T00:02:19.516Z,5.30
2022-11-17T00:07:21.436Z,5.30
2022-11-17T00:12:41.565Z,5.30
2022-11-17T00:17:43.312Z,5.30
2022-11-17T00:22:45.059Z,5.30
2022-11-17T00:27:46.831Z,5.30
2022-11-17T00:33:07.665Z,5.30
2022-11-17T00:38:18.197Z,5.30
2022-11-17T00:43:19.943Z,5.30
2022-11-17T00:48:21.699Z,5.30
2022-11-17T00:53:23.432Z,5.30
2022-11-17T00:58:25.159Z,5.30
2022-11-17T01:03:26.923Z,5.20
2022-11-17T01:08:28.688Z,5.20
2022-11-17T01:13:30.444Z,5.10
2022-11-17T01:18:32.359Z,5.20
2022-11-17T01:23:34.475Z,5.10
2022-11-17T01:28:37.416Z,5.10
2022-11-17T01:33:40.104Z,5.10
2022-11-17T01:38:42.604Z,5.20
2022-11-17T01:43:51.543Z,5.20
2022-11-17T01:48:56.914Z,5.20
2022-11-17T01:53:59.355Z,5.20
2022-11-17T01:59:09.884Z,5.30
2022-11-17T02:04:11.676Z,5.30
2022-11-17T02:09:13.684Z,5.40
2022-11-17T02:14:15.429Z,5.30
2022-11-17T02:19:18.390Z,5.30
2022-11-17T02:24:39.067Z,5.30
2022-11-17T02:29:58.228Z,5.30
2022-11-17T02:35:09.175Z,5.20
2022-11-17T02:40:16.446Z,5.20
2022-11-17T02:45:25.246Z,5.30
2022-11-17T02:50:29.569Z,5.30
2022-11-17T02:55:35.131Z,5.30
2022-11-17T03:00:46.990Z,5.30
2022-11-17T03:06:09.622Z,5.30
2022-11-17T03:11:11.782Z,5.40
2022-11-17T03:16:16.260Z,5.40
2022-11-17T03:21:30.072Z,5.40
2022-11-17T03:26:36.355Z,5.40
2022-11-17T03:31:39.792Z,5.40
2022-11-17T03:36:47.084Z,5.30
2022-11-17T03:41:51.337Z,5.30
2022-11-17T03:46:55.515Z,5.30
2022-11-17T03:51:57.910Z,5.40
2022-11-17T03:57:31.374Z,5.30
2022-11-17T04:02:33.337Z,5.30
2022-11-17T04:07:36.130Z,5.30
2022-11-17T04:12:56.501Z,5.30
2022-11-17T04:17:58.344Z,5.30
2022-11-17T04:23:08.919Z,5.30
2022-11-17T04:28:29.092Z,5.30
2022-11-17T04:33:31.076Z,5.30
2022-11-17T04:38:33.206Z,5.30
2022-11-17T04:43:35.159Z,5.20
2022-11-17T04:48:37.088Z,5.20
2022-11-17T04:53:38.945Z,5.20
2022-11-17T04:58:41.372Z,5.10
2022-11-17T05:03:47.074Z,5.20
2022-11-17T05:08:49.678Z,5.20
2022-11-17T05:13:52.011Z,5.20
2022-11-17T05:18:53.846Z,5.20
2022-11-17T05:23:56.416Z,5.30
2022-11-17T05:29:00.055Z,5.30
2022-11-17T05:34:03.039Z,5.30
2022-11-17T05:39:06.237Z,5.30
2022-11-17T05:44:07.955Z,5.30
2022-11-17T05:49:09.710Z,5.30
2022-11-17T05:54:11.590Z,5.30
2022-11-17T05:59:32.302Z,5.30
2022-11-17T06:04:34.931Z,5.30
2022-11-17T06:09:41.380Z,5.30
2022-11-17T06:14:43.210Z,5.30
2022-11-17T06:19:48.454Z,5.30
2022-11-17T06:24:50.347Z,5.30
2022-11-17T06:29:52.627Z,5.30
2022-11-17T06:34:56.327Z,5.30
2022-11-17T06:39:58.279Z,5.30
2022-11-17T06:45:00.204Z,5.30
2022-11-17T06:50:02.303Z,5.30
2022-11-17T06:55:04.357Z,5.40
2022-11-17T07:00:06.925Z,5.40
2022-11-17T07:05:09.234Z,5.40
2022-11-17T07:10:11.086Z,5.50
2022-11-17T07:15:13.121Z,5.50
2022-11-17T07:20:15.726Z,5.50
2022-11-17T07:25:22.243Z,5.50
2022-11-17T07:30:24.421Z,5.60
2022-11-17T07:35:26.379Z,5.50
2022-11-17T07:40:29.652Z,5.60
2022-11-17T07:45:32.309Z,5.60
2022-11-17T07:50:34.968Z,5.60
2022-11-17T07:55:36.827Z,5.70
2022-11-17T08:00:38.680Z,5.70
2022-11-17T08:05:43.564Z,5.70
2022-11-17T08:10:46.191Z,5.70
2022-11-17T08:15:48.030Z,5.70
2022-11-17T08:20:49.802Z,5.70
2022-11-17T08:25:51.563Z,5.70
2022-11-17T08:30:53.466Z,5.70
2022-11-17T08:35:59.197Z,5.70
2022-11-17T08:41:05.962Z,5.70
2022-11-17T08:46:13.898Z,5.80
2022-11-17T08:51:15.771Z,5.90
2022-11-17T08:56:17.528Z,6.00
2022-11-17T09:01:19.425Z,6.10
2022-11-17T09:06:21.278Z,6.20
2022-11-17T09:11:23.923Z,6.20
2022-11-17T09:16:25.709Z,6.30
2022-11-17T09:21:27.621Z,6.40
2022-11-17T09:26:29.441Z,6.40
2022-11-17T09:31:31.302Z,6.50
2022-11-17T09:36:33.781Z,6.60
2022-11-17T09:41:48.090Z,6.70
2022-11-17T09:47:11.710Z,6.80
2022-11-17T09:52:22.314Z,6.80
2022-11-17T09:57:42.006Z,6.90
2022-11-17T10:02:43.888Z,6.90
2022-11-17T10:07:51.357Z,6.90
2022-11-17T10:12:57.931Z,7.00
2022-11-17T10:17:59.870Z,7.00
2022-11-17T10:23:03.585Z,7.20
2022-11-17T10:28:22.261Z,7.40
2022-11-17T10:33:53.319Z,7.70
2022-11-17T10:38:58.027Z,7.80
2022-11-17T10:44:02.977Z,7.90
2022-11-17T10:49:22.565Z,8.00
2022-11-17T10:54:24.382Z,8.00
2022-11-17T10:59:32.389Z,8.00
2022-11-17T11:04:36.877Z,8.00
2022-11-17T11:10:26.158Z,8.00
2022-11-17T11:15:33.501Z,8.10
2022-11-17T11:20:52.084Z,8.10
2022-11-17T11:26:25.480Z,8.10
2022-11-17T11:31:39.149Z,8.10
2022-11-17T11:36:49.677Z,8.00
2022-11-17T11:42:10.053Z,8.00
2022-11-17T11:47:49.550Z,7.90
2022-11-17T11:52:59.495Z,7.80
2022-11-17T11:58:06.176Z,7.70
2022-11-17T12:03:21.129Z,7.60
2022-11-17T12:08:46.266Z,7.60
2022-11-17T12:13:54.013Z,7.60
2022-11-17T12:18:56.207Z,7.50
2022-11-17T12:24:18.053Z,7.60
2022-11-17T12:29:19.773Z,7.60
2022-11-17T12:34:24.521Z,7.70
2022-11-17T12:39:59.181Z,7.70
2022-11-17T12:45:03.658Z,7.80
2022-11-17T12:50:18.328Z,7.90
2022-11-17T12:55:35.589Z,8.00
2022-11-17T13:01:04.138Z,8.00
2022-11-17T13:06:33.881Z,8.00
2022-11-17T13:11:29.829Z,8.00
2022-11-17T13:16:31.705Z,8.10
2022-11-17T13:21:33.555Z,8.20
2022-11-17T13:26:38.388Z,8.30
2022-11-17T13:31:40.642Z,8.30
2022-11-17T13:37:14.738Z,8.20
2022-11-17T13:42:16.809Z,8.30
2022-11-17T13:47:43.273Z,8.30
2022-11-17T13:52:47.115Z,8.30
2022-11-17T13:58:03.535Z,8.30
2022-11-17T14:03:06.218Z,8.30
2022-11-17T14:08:14.147Z,8.20
2022-11-17T14:13:18.888Z,8.20
2022-11-17T14:18:36.970Z,8.20
2022-11-17T14:23:39.641Z,8.10
2022-11-17T14:28:41.453Z,8.20
2022-11-17T14:33:43.208Z,8.20
2022-11-17T14:38:46.322Z,8.10
2022-11-17T14:43:48.323Z,8.20
2022-11-17T14:48:50.580Z,8.10
2022-11-17T14:53:52.701Z,8.10
2022-11-17T14:58:59.445Z,8.00
2022-11-17T15:04:20.655Z,8.00
2022-11-17T15:09:24.965Z,8.00
2022-11-17T15:14:26.834Z,8.00
2022-11-17T15:19:28.614Z,8.00
2022-11-17T15:24:30.498Z,7.90
2022-11-17T15:29:32.341Z,7.90
2022-11-17T15:34:34.992Z,7.80
2022-11-17T15:39:37.881Z,7.80
2022-11-17T15:44:39.733Z,7.80
2022-11-17T15:49:41.469Z,7.70
2022-11-17T15:54:43.257Z,7.70
2022-11-17T15:59:45.027Z,7.60
2022-11-17T16:04:46.831Z,7.60
2022-11-17T16:09:50.309Z,7.40
2022-11-17T16:14:52.290Z,7.30
2022-11-17T16:19:54.237Z,7.10
2022-11-17T16:24:56.064Z,7.00
2022-11-17T16:29:57.870Z,6.80
2022-11-17T16:34:59.729Z,6.70
2022-11-17T16:40:01.478Z,6.50
2022-11-17T16:45:03.441Z,6.50
2022-11-17T16:50:05.641Z,6.50
2022-11-17T16:55:07.922Z,6.30
2022-11-17T17:00:10.452Z,6.20
2022-11-17T17:05:12.254Z,6.10
2022-11-17T17:10:14.058Z,6.10
2022-11-17T17:15:15.837Z,6.20
2022-11-17T17:20:18.135Z,6.10
2022-11-17T17:25:19.911Z,6.00
2022-11-17T17:30:21.790Z,6.00
2022-11-17T17:35:23.657Z,5.90
2022-11-17T17:40:26.102Z,5.90
2022-11-17T17:45:28.375Z,5.80
2022-11-17T17:50:31.097Z,5.70
2022-11-17T17:55:34.550Z,5.70
2022-11-17T18:00:36.389Z,5.60
2022-11-17T18:05:38.279Z,5.60
2022-11-17T18:10:40.099Z,5.70
2022-11-17T18:15:42.379Z,5.70
2022-11-17T18:20:44.120Z,5.50
2022-11-17T18:25:45.854Z,5.40
2022-11-17T18:30:47.669Z,5.40
2022-11-17T18:35:49.591Z,5.30
2022-11-17T18:40:54.442Z,5.30
2022-11-17T18:46:08.373Z,5.30
2022-11-17T18:51:20.957Z,5.40
2022-11-17T18:56:25.614Z,5.30
2022-11-17T19:01:29.242Z,5.40
2022-11-17T19:06:31.432Z,5.40
2022-11-17T19:11:34.544Z,5.40
2022-11-17T19:16:44.402Z,5.30
2022-11-17T19:21:47.336Z,5.30
2022-11-17T19:26:49.621Z,5.30
2022-11-17T19:31:52.995Z,5.30
2022-11-17T19:36:55.535Z,5.30
2022-11-17T19:41:58.181Z,5.20
2022-11-17T19:47:00.958Z,5.30
2022-11-17T19:52:03.907Z,5.20
2022-11-17T19:57:06.474Z,5.20
2022-11-17T20:02:14.223Z,5.20
2022-11-17T20:07:16.766Z,5.30
2022-11-17T20:12:19.730Z,5.30
2022-11-17T20:17:22.313Z,5.30
2022-11-17T20:22:25.238Z,5.40
2022-11-17T20:27:28.448Z,5.40
2022-11-17T20:32:32.454Z,5.30
2022-11-17T20:37:34.652Z,5.50
2022-11-17T20:42:37.068Z,5.40
2022-11-17T20:47:39.670Z,5.50
2022-11-17T20:52:42.203Z,5.50
2022-11-17T20:57:44.362Z,5.60
2022-11-17T21:02:46.486Z,5.60
2022-11-17T21:07:48.389Z,5.60
2022-11-17T21:12:50.284Z,5.70
2022-11-17T21:18:11.426Z,5.70
2022-11-17T21:23:14.201Z,5.80
2022-11-17T21:28:16.435Z,5.80
2022-11-17T21:33:18.198Z,5.90
2022-11-17T21:38:19.945Z,6.00
2022-11-17T21:43:21.753Z,6.00
2022-11-17T21:48:23.496Z,6.00
2022-11-17T21:53:26.195Z,6.00
2022-11-17T21:58:28.098Z,6.10
2022-11-17T22:03:31.807Z,6.10
2022-11-17T22:08:38.320Z,6.20
2022-11-17T22:13:40.291Z,6.10
2022-11-17T22:18:42.052Z,6.20
2022-11-17T22:23:43.765Z,6.30
2022-11-17T22:28:45.538Z,6.30
2022-11-17T22:33:48.547Z,6.30
2022-11-17T22:38:51.621Z,6.40
2022-11-17T22:43:55.251Z,6.40
2022-11-17T22:48:57.202Z,6.40
2022-11-17T22:53:59.047Z,6.40
2022-11-17T22:59:01.778Z,6.40
2022-11-17T23:04:03.902Z,6.40
2022-11-17T23:09:05.818Z,6.40
2022-11-17T23:14:10.547Z,6.40
2022-11-17T23:19:14.302Z,6.40
2022-11-17T23:24:16.184Z,6.40
2022-11-17T23:29:18.328Z,6.40
2022-11-17T23:34:20.450Z,6.40
2022-11-17T23:39:22.208Z,6.40
2022-11-17T23:44:24.139Z,6.40
2022-11-17T23:49:25.917Z,6.40
2022-11-17T23:54:27.670Z,6.40
2022-11-17T23:59:29.452Z,6.40
